Overview Statistics Trail Chart Weather Telemetry Raw packets
 

This is the latest recevied weather packets stored in our database for station/object HOWARD. If no packets are shown the sender has not sent any weather packets the latest 10 day(s).

<< 47 48 49 50 51 52 53 >>
Time Temp. Humidity Pressure Rain* Wind** Luminosity Snow
1787983478 11.67° C 54% 1015 hPa 0 mm - - -
1787982878 12.22° C 51% 1015.1 hPa 0 mm - - -
1787982278 12.22° C 52% 1015.1 hPa 0 mm - - -
1787981678 11.67° C 53% 1015.2 hPa 0 mm - - -
1787981078 10.56° C 56% 1015.2 hPa 0 mm - - -
1787980478 11.11° C 53% 1015.3 hPa 0 mm - - -
1787979878 11.67° C 52% 1015.4 hPa 0 mm - - -
1787979346 12.22° C 52% 1015.4 hPa 0 mm - - -
1787979278 12.22° C 52% 1015.4 hPa 0 mm - - -
1787978678 12.22° C 50% 1015.6 hPa 0 mm - - -
1787978081 12.22° C 51% 1015.5 hPa 0 mm - - -
1787977478 12.78° C 52% 1015.6 hPa 0 mm - - -
1787976878 13.33° C 49% 1015.7 hPa 0 mm - - -
1787976278 12.78° C 50% 1015.6 hPa 0 mm - - -
1787975678 12.78° C 50% 1015.6 hPa 0 mm - - -
1787975078 13.33° C 49% 1015.6 hPa 0 mm - - -
1787974478 13.33° C 49% 1015.6 hPa 0 mm - - -
1787974058 13.33° C 48% 1015.5 hPa 0 mm - - -
1787973878 13.33° C 48% 1015.5 hPa 0 mm - - -
1787973278 13.89° C 49% 1015.4 hPa 0 mm - - -
1787972678 12.78° C 50% 1015.4 hPa 0 mm - - -
1787972077 12.78° C 51% 1015.3 hPa 0 mm - - -
1787971478 12.78° C 51% 1015.3 hPa 0 mm - - -
1787970877 12.78° C 50% 1015.3 hPa 0 mm - - -
1787970277 12.78° C 49% 1015.3 hPa 0 mm - - -

* Rain latest hour (hover to see other rain measurements)
** Current wind speed in m/s (hover to see current wind gust speed)